sensor_id;sensor_type;location;lat;lon;timestamp;pressure;altitude;pressure_sealevel;temperature;humidity
41140;BME280;26881;48.784;9.192;2023-09-19T00:03:39;98159.13;;;17.99;84.64
41140;BME280;26881;48.784;9.192;2023-09-19T00:09:05;98163.34;;;17.92;84.89
41140;BME280;26881;48.784;9.192;2023-09-19T00:14:27;98182.84;;;17.91;84.87
41140;BME280;26881;48.784;9.192;2023-09-19T00:19:49;98193.19;;;17.75;86.99
41140;BME280;26881;48.784;9.192;2023-09-19T00:25:11;98207.41;;;17.64;88.21
41140;BME280;26881;48.784;9.192;2023-09-19T00:30:34;98201.03;;;17.57;89.14
41140;BME280;26881;48.784;9.192;2023-09-19T00:35:57;98204.69;;;17.36;90.58
41140;BME280;26881;48.784;9.192;2023-09-19T00:41:19;98216.53;;;17.42;90.25
41140;BME280;26881;48.784;9.192;2023-09-19T00:46:41;98217.34;;;17.52;89.23
41140;BME280;26881;48.784;9.192;2023-09-19T00:52:04;98214.03;;;17.40;89.80
41140;BME280;26881;48.784;9.192;2023-09-19T00:57:26;98226.28;;;17.32;90.26
41140;BME280;26881;48.784;9.192;2023-09-19T01:02:48;98237.13;;;17.38;90.20
41140;BME280;26881;48.784;9.192;2023-09-19T01:08:10;98229.03;;;17.49;88.75
41140;BME280;26881;48.784;9.192;2023-09-19T01:13:47;98238.09;;;17.47;88.18
41140;BME280;26881;48.784;9.192;2023-09-19T01:30:32;98241.97;;;17.53;86.21
41140;BME280;26881;48.784;9.192;2023-09-19T01:35:57;98252.41;;;17.54;86.26
41140;BME280;26881;48.784;9.192;2023-09-19T01:41:29;98247.53;;;17.49;86.57
41140;BME280;26881;48.784;9.192;2023-09-19T01:46:58;98244.06;;;17.49;86.30
41140;BME280;26881;48.784;9.192;2023-09-19T01:52:28;98253.63;;;17.60;84.50
41140;BME280;26881;48.784;9.192;2023-09-19T01:58:07;98254.22;;;17.54;84.22
41140;BME280;26881;48.784;9.192;2023-09-19T02:03:31;98266.59;;;17.63;83.07
41140;BME280;26881;48.784;9.192;2023-09-19T02:08:54;98267.25;;;17.75;81.79
41140;BME280;26881;48.784;9.192;2023-09-19T02:14:16;98280.22;;;17.68;82.35
41140;BME280;26881;48.784;9.192;2023-09-19T02:19:38;98279.00;;;17.43;83.86
41140;BME280;26881;48.784;9.192;2023-09-19T02:25:01;98281.38;;;17.46;83.90
41140;BME280;26881;48.784;9.192;2023-09-19T02:30:23;98284.03;;;17.46;84.14
41140;BME280;26881;48.784;9.192;2023-09-19T02:35:47;98277.03;;;17.55;82.99
41140;BME280;26881;48.784;9.192;2023-09-19T02:41:09;98283.19;;;17.36;83.98
41140;BME280;26881;48.784;9.192;2023-09-19T02:46:31;98283.75;;;17.30;84.92
41140;BME280;26881;48.784;9.192;2023-09-19T02:51:53;98298.06;;;17.17;86.20
41140;BME280;26881;48.784;9.192;2023-09-19T02:57:15;98307.25;;;17.13;86.73
41140;BME280;26881;48.784;9.192;2023-09-19T03:02:39;98304.75;;;17.12;86.90
41140;BME280;26881;48.784;9.192;2023-09-19T03:08:03;98305.84;;;17.38;84.89
41140;BME280;26881;48.784;9.192;2023-09-19T03:13:26;98303.34;;;17.46;84.33
41140;BME280;26881;48.784;9.192;2023-09-19T03:18:48;98306.25;;;17.43;84.66
41140;BME280;26881;48.784;9.192;2023-09-19T03:24:12;98306.81;;;17.47;84.80
41140;BME280;26881;48.784;9.192;2023-09-19T03:29:34;98303.78;;;17.42;85.24
41140;BME280;26881;48.784;9.192;2023-09-19T03:34:57;98305.72;;;17.30;86.34
41140;BME280;26881;48.784;9.192;2023-09-19T03:40:19;98311.13;;;17.38;85.66
41140;BME280;26881;48.784;9.192;2023-09-19T03:45:43;98300.44;;;17.40;85.35
41140;BME280;26881;48.784;9.192;2023-09-19T03:51:05;98299.72;;;17.47;84.23
41140;BME280;26881;48.784;9.192;2023-09-19T03:56:26;98298.75;;;17.39;85.72
41140;BME280;26881;48.784;9.192;2023-09-19T04:01:50;98302.53;;;17.46;85.49
41140;BME280;26881;48.784;9.192;2023-09-19T04:07:12;98314.63;;;17.39;85.88
41140;BME280;26881;48.784;9.192;2023-09-19T04:12:34;98312.25;;;17.26;87.06
41140;BME280;26881;48.784;9.192;2023-09-19T04:17:56;98327.72;;;17.11;89.10
41140;BME280;26881;48.784;9.192;2023-09-19T04:23:18;98315.88;;;17.05;91.13
41140;BME280;26881;48.784;9.192;2023-09-19T04:28:43;98332.28;;;17.09;91.32
41140;BME280;26881;48.784;9.192;2023-09-19T04:34:06;98329.38;;;17.12;90.53
41140;BME280;26881;48.784;9.192;2023-09-19T04:39:29;98324.50;;;17.17;90.43
41140;BME280;26881;48.784;9.192;2023-09-19T04:44:51;98328.94;;;17.17;89.93
41140;BME280;26881;48.784;9.192;2023-09-19T04:50:14;98333.81;;;17.12;90.87
41140;BME280;26881;48.784;9.192;2023-09-19T04:55:38;98345.50;;;17.19;90.83
41140;BME280;26881;48.784;9.192;2023-09-19T05:01:00;98356.38;;;17.16;93.36
41140;BME280;26881;48.784;9.192;2023-09-19T05:06:25;98373.97;;;16.86;100.00
41140;BME280;26881;48.784;9.192;2023-09-19T05:11:48;98374.03;;;16.75;100.00
41140;BME280;26881;48.784;9.192;2023-09-19T05:17:10;98378.22;;;16.77;100.00
41140;BME280;26881;48.784;9.192;2023-09-19T05:22:32;98374.41;;;16.60;100.00
41140;BME280;26881;48.784;9.192;2023-09-19T05:27:58;98387.03;;;16.57;100.00
41140;BME280;26881;48.784;9.192;2023-09-19T05:33:20;98385.69;;;16.62;100.00
41140;BME280;26881;48.784;9.192;2023-09-19T05:38:42;98394.00;;;16.58;100.00
41140;BME280;26881;48.784;9.192;2023-09-19T05:44:06;98425.59;;;16.69;100.00
41140;BME280;26881;48.784;9.192;2023-09-19T05:49:28;98428.44;;;16.56;100.00
41140;BME280;26881;48.784;9.192;2023-09-19T05:54:50;98454.75;;;16.37;100.00
41140;BME280;26881;48.784;9.192;2023-09-19T06:00:13;98458.22;;;15.95;100.00
41140;BME280;26881;48.784;9.192;2023-09-19T06:05:35;98455.66;;;15.73;100.00
41140;BME280;26881;48.784;9.192;2023-09-19T06:10:57;98464.44;;;15.62;100.00
41140;BME280;26881;48.784;9.192;2023-09-19T06:16:18;98468.38;;;15.68;100.00
41140;BME280;26881;48.784;9.192;2023-09-19T06:21:41;98473.53;;;15.69;100.00
41140;BME280;26881;48.784;9.192;2023-09-19T06:27:04;98469.31;;;15.78;100.00
41140;BME280;26881;48.784;9.192;2023-09-19T06:32:29;98472.81;;;15.67;100.00
41140;BME280;26881;48.784;9.192;2023-09-19T06:37:51;98475.44;;;15.78;100.00
41140;BME280;26881;48.784;9.192;2023-09-19T06:43:13;98475.91;;;16.05;100.00
41140;BME280;26881;48.784;9.192;2023-09-19T06:48:35;98481.91;;;16.28;100.00
41140;BME280;26881;48.784;9.192;2023-09-19T06:53:57;98489.38;;;16.43;100.00
41140;BME280;26881;48.784;9.192;2023-09-19T06:59:20;98485.22;;;16.72;100.00
41140;BME280;26881;48.784;9.192;2023-09-19T07:04:42;98499.97;;;16.95;100.00
41140;BME280;26881;48.784;9.192;2023-09-19T07:10:05;98503.78;;;17.12;96.62
41140;BME280;26881;48.784;9.192;2023-09-19T07:15:28;98516.91;;;17.33;95.92
41140;BME280;26881;48.784;9.192;2023-09-19T07:20:50;98512.22;;;17.37;95.30
41140;BME280;26881;48.784;9.192;2023-09-19T07:26:12;98521.97;;;17.46;92.09
41140;BME280;26881;48.784;9.192;2023-09-19T07:31:34;98515.28;;;17.42;91.18
41140;BME280;26881;48.784;9.192;2023-09-19T07:36:56;98514.75;;;17.58;87.89
41140;BME280;26881;48.784;9.192;2023-09-19T07:42:18;98532.00;;;17.62;88.61
41140;BME280;26881;48.784;9.192;2023-09-19T07:47:46;98535.66;;;17.70;90.01
41140;BME280;26881;48.784;9.192;2023-09-19T07:53:08;98530.84;;;17.95;86.77
41140;BME280;26881;48.784;9.192;2023-09-19T07:58:30;98527.91;;;18.27;81.94
41140;BME280;26881;48.784;9.192;2023-09-19T08:03:53;98544.91;;;18.25;82.73
41140;BME280;26881;48.784;9.192;2023-09-19T08:09:15;98546.59;;;18.36;79.02
41140;BME280;26881;48.784;9.192;2023-09-19T08:14:46;98545.16;;;18.80;78.08
41140;BME280;26881;48.784;9.192;2023-09-19T08:20:10;98543.19;;;19.20;72.28
41140;BME280;26881;48.784;9.192;2023-09-19T08:25:37;98542.66;;;22.06;57.80
41140;BME280;26881;48.784;9.192;2023-09-19T08:31:05;98546.69;;;22.76;55.44
41140;BME280;26881;48.784;9.192;2023-09-19T08:36:27;98539.88;;;23.77;52.67
41140;BME280;26881;48.784;9.192;2023-09-19T08:41:49;98545.44;;;25.12;48.17
41140;BME280;26881;48.784;9.192;2023-09-19T08:47:15;98551.88;;;23.73;50.74
41140;BME280;26881;48.784;9.192;2023-09-19T08:52:41;98558.94;;;23.18;54.02
41140;BME280;26881;48.784;9.192;2023-09-19T08:58:04;98557.97;;;23.11;53.72
41140;BME280;26881;48.784;9.192;2023-09-19T09:03:32;98559.81;;;22.94;52.14
41140;BME280;26881;48.784;9.192;2023-09-19T09:08:55;98561.44;;;23.75;50.51
41140;BME280;26881;48.784;9.192;2023-09-19T09:14:19;98552.38;;;26.67;43.13
41140;BME280;26881;48.784;9.192;2023-09-19T09:19:43;98561.94;;;27.32;38.52
41140;BME280;26881;48.784;9.192;2023-09-19T09:25:05;98567.19;;;26.20;40.17
41140;BME280;26881;48.784;9.192;2023-09-19T09:30:34;98569.25;;;26.39;39.60
41140;BME280;26881;48.784;9.192;2023-09-19T09:41:19;98565.94;;;26.87;36.35
41140;BME280;26881;48.784;9.192;2023-09-19T09:46:50;98561.09;;;27.04;36.01
41140;BME280;26881;48.784;9.192;2023-09-19T09:52:21;98554.94;;;27.86;34.66
41140;BME280;26881;48.784;9.192;2023-09-19T09:57:46;98556.28;;;27.69;34.97
41140;BME280;26881;48.784;9.192;2023-09-19T10:03:19;98543.47;;;28.52;33.85
41140;BME280;26881;48.784;9.192;2023-09-19T10:09:00;98545.22;;;29.45;31.76
41140;BME280;26881;48.784;9.192;2023-09-19T10:14:35;98543.88;;;28.96;32.16
41140;BME280;26881;48.784;9.192;2023-09-19T10:20:00;98547.06;;;27.85;33.54
41140;BME280;26881;48.784;9.192;2023-09-19T10:25:31;98564.03;;;25.29;37.41
41140;BME280;26881;48.784;9.192;2023-09-19T10:30:53;98564.59;;;24.02;40.17
41140;BME280;26881;48.784;9.192;2023-09-19T10:36:16;98566.34;;;22.83;44.10
41140;BME280;26881;48.784;9.192;2023-09-19T10:41:39;98550.88;;;24.89;39.29
41140;BME280;26881;48.784;9.192;2023-09-19T10:47:01;98560.91;;;24.87;39.07
41140;BME280;26881;48.784;9.192;2023-09-19T10:52:26;98540.97;;;28.37;32.90
41140;BME280;26881;48.784;9.192;2023-09-19T10:57:50;98531.78;;;30.72;28.72
41140;BME280;26881;48.784;9.192;2023-09-19T11:03:20;98542.63;;;29.18;31.00
41140;BME280;26881;48.784;9.192;2023-09-19T11:09:04;98543.00;;;26.84;35.22
41140;BME280;26881;48.784;9.192;2023-09-19T11:14:38;98554.41;;;25.05;37.48
41140;BME280;26881;48.784;9.192;2023-09-19T11:31:55;98525.91;;;26.92;34.52
41140;BME280;26881;48.784;9.192;2023-09-19T11:42:45;98516.53;;;26.53;35.04
41140;BME280;26881;48.784;9.192;2023-09-19T11:48:18;98527.25;;;25.67;34.94
41140;BME280;26881;48.784;9.192;2023-09-19T11:53:40;98518.31;;;25.81;34.97
41140;BME280;26881;48.784;9.192;2023-09-19T11:59:03;98503.03;;;27.31;32.44
41140;BME280;26881;48.784;9.192;2023-09-19T12:04:38;98507.56;;;26.61;33.18
41140;BME280;26881;48.784;9.192;2023-09-19T12:10:04;98509.38;;;25.74;34.68
41140;BME280;26881;48.784;9.192;2023-09-19T12:15:27;98486.53;;;28.22;31.92
41140;BME280;26881;48.784;9.192;2023-09-19T12:20:56;98489.47;;;28.67;31.18
41140;BME280;26881;48.784;9.192;2023-09-19T12:26:19;98484.06;;;28.21;31.31
41140;BME280;26881;48.784;9.192;2023-09-19T12:31:53;98475.13;;;28.80;31.49
41140;BME280;26881;48.784;9.192;2023-09-19T12:37:17;98471.00;;;28.77;30.05
41140;BME280;26881;48.784;9.192;2023-09-19T12:42:49;98469.88;;;26.76;33.87
41140;BME280;26881;48.784;9.192;2023-09-19T12:48:25;98463.94;;;28.76;31.59
41140;BME280;26881;48.784;9.192;2023-09-19T12:53:57;98457.22;;;27.39;32.88
41140;BME280;26881;48.784;9.192;2023-09-19T12:59:29;98476.78;;;26.35;35.07
41140;BME280;26881;48.784;9.192;2023-09-19T13:04:53;98455.78;;;26.39;34.45
41140;BME280;26881;48.784;9.192;2023-09-19T13:10:15;98444.19;;;27.43;33.83
41140;BME280;26881;48.784;9.192;2023-09-19T13:15:51;98454.19;;;27.75;31.47
41140;BME280;26881;48.784;9.192;2023-09-19T13:21:14;98455.22;;;27.68;32.43
41140;BME280;26881;48.784;9.192;2023-09-19T13:26:44;98442.91;;;28.00;32.28
41140;BME280;26881;48.784;9.192;2023-09-19T13:32:07;98440.25;;;27.39;33.60
41140;BME280;26881;48.784;9.192;2023-09-19T13:37:33;98434.63;;;28.35;31.78
41140;BME280;26881;48.784;9.192;2023-09-19T13:42:56;98436.34;;;26.58;33.98
41140;BME280;26881;48.784;9.192;2023-09-19T13:48:18;98432.38;;;27.24;33.76
41140;BME280;26881;48.784;9.192;2023-09-19T13:53:44;98423.44;;;28.45;31.74
41140;BME280;26881;48.784;9.192;2023-09-19T13:59:05;98421.75;;;27.77;31.81
41140;BME280;26881;48.784;9.192;2023-09-19T14:04:28;98414.56;;;27.84;31.80
41140;BME280;26881;48.784;9.192;2023-09-19T14:09:50;98417.63;;;27.88;31.70
41140;BME280;26881;48.784;9.192;2023-09-19T14:15:12;98414.50;;;28.64;31.06
41140;BME280;26881;48.784;9.192;2023-09-19T14:20:38;98418.25;;;28.56;30.37
41140;BME280;26881;48.784;9.192;2023-09-19T14:26:01;98412.25;;;27.88;31.81
41140;BME280;26881;48.784;9.192;2023-09-19T14:31:23;98413.06;;;26.65;32.79
41140;BME280;26881;48.784;9.192;2023-09-19T14:36:45;98409.06;;;25.77;33.38
41140;BME280;26881;48.784;9.192;2023-09-19T14:42:06;98402.63;;;25.93;33.77
41140;BME280;26881;48.784;9.192;2023-09-19T14:47:30;98404.97;;;25.81;33.66
41140;BME280;26881;48.784;9.192;2023-09-19T14:52:55;98389.00;;;26.44;32.83
41140;BME280;26881;48.784;9.192;2023-09-19T14:58:17;98392.69;;;25.29;34.45
41140;BME280;26881;48.784;9.192;2023-09-19T15:03:41;98399.63;;;24.57;35.74
41140;BME280;26881;48.784;9.192;2023-09-19T15:09:08;98401.88;;;23.92;37.18
41140;BME280;26881;48.784;9.192;2023-09-19T15:14:31;98400.03;;;23.93;37.52
41140;BME280;26881;48.784;9.192;2023-09-19T15:19:53;98407.28;;;23.84;37.17
41140;BME280;26881;48.784;9.192;2023-09-19T15:25:15;98417.69;;;23.79;37.88
41140;BME280;26881;48.784;9.192;2023-09-19T15:30:37;98404.50;;;23.54;38.33
41140;BME280;26881;48.784;9.192;2023-09-19T15:36:07;98396.38;;;23.48;37.86
41140;BME280;26881;48.784;9.192;2023-09-19T15:41:32;98384.06;;;23.39;38.28
41140;BME280;26881;48.784;9.192;2023-09-19T15:46:55;98388.84;;;23.20;38.54
41140;BME280;26881;48.784;9.192;2023-09-19T15:52:17;98390.50;;;23.21;39.07
41140;BME280;26881;48.784;9.192;2023-09-19T15:57:39;98389.69;;;23.21;39.45
41140;BME280;26881;48.784;9.192;2023-09-19T16:03:01;98384.59;;;23.03;40.26
41140;BME280;26881;48.784;9.192;2023-09-19T16:08:26;98388.50;;;22.84;40.72
41140;BME280;26881;48.784;9.192;2023-09-19T16:13:49;98388.03;;;22.80;40.91
41140;BME280;26881;48.784;9.192;2023-09-19T16:19:12;98383.44;;;22.58;40.83
41140;BME280;26881;48.784;9.192;2023-09-19T16:24:34;98381.44;;;22.60;40.94
41140;BME280;26881;48.784;9.192;2023-09-19T16:29:55;98384.63;;;22.55;41.28
41140;BME280;26881;48.784;9.192;2023-09-19T16:35:17;98385.50;;;22.39;42.00
41140;BME280;26881;48.784;9.192;2023-09-19T16:40:39;98376.69;;;22.30;41.98
41140;BME280;26881;48.784;9.192;2023-09-19T16:46:04;98380.88;;;22.33;42.46
41140;BME280;26881;48.784;9.192;2023-09-19T16:51:30;98380.88;;;22.25;42.94
41140;BME280;26881;48.784;9.192;2023-09-19T16:56:52;98379.84;;;22.09;43.24
41140;BME280;26881;48.784;9.192;2023-09-19T17:02:14;98379.56;;;21.96;43.67
41140;BME280;26881;48.784;9.192;2023-09-19T17:07:36;98380.03;;;22.00;43.63
41140;BME280;26881;48.784;9.192;2023-09-19T17:13:01;98383.91;;;21.73;44.74
41140;BME280;26881;48.784;9.192;2023-09-19T17:18:28;98384.88;;;21.72;44.83
41140;BME280;26881;48.784;9.192;2023-09-19T17:23:52;98391.00;;;21.56;46.02
41140;BME280;26881;48.784;9.192;2023-09-19T17:29:16;98387.97;;;21.26;47.68
41140;BME280;26881;48.784;9.192;2023-09-19T17:34:38;98397.22;;;21.05;47.44
41140;BME280;26881;48.784;9.192;2023-09-19T17:40:00;98388.50;;;20.87;48.64
41140;BME280;26881;48.784;9.192;2023-09-19T17:45:26;98400.91;;;20.70;50.18
41140;BME280;26881;48.784;9.192;2023-09-19T17:50:48;98403.41;;;20.46;51.79
41140;BME280;26881;48.784;9.192;2023-09-19T17:56:13;98412.09;;;20.30;52.10
41140;BME280;26881;48.784;9.192;2023-09-19T18:01:37;98408.53;;;19.95;54.35
41140;BME280;26881;48.784;9.192;2023-09-19T18:06:59;98417.50;;;19.76;55.29
41140;BME280;26881;48.784;9.192;2023-09-19T18:12:20;98420.66;;;19.62;55.89
41140;BME280;26881;48.784;9.192;2023-09-19T18:17:42;98436.22;;;19.56;56.28
41140;BME280;26881;48.784;9.192;2023-09-19T18:23:04;98432.50;;;19.49;55.95
41140;BME280;26881;48.784;9.192;2023-09-19T18:28:26;98433.63;;;19.47;55.87
41140;BME280;26881;48.784;9.192;2023-09-19T18:33:48;98436.94;;;19.31;56.53
41140;BME280;26881;48.784;9.192;2023-09-19T18:39:12;98443.06;;;19.31;56.26
41140;BME280;26881;48.784;9.192;2023-09-19T18:44:36;98442.25;;;19.31;56.08
41140;BME280;26881;48.784;9.192;2023-09-19T18:49:59;98440.50;;;19.22;56.55
41140;BME280;26881;48.784;9.192;2023-09-19T18:55:21;98440.78;;;19.19;56.17
41140;BME280;26881;48.784;9.192;2023-09-19T19:00:44;98450.97;;;19.13;55.91
41140;BME280;26881;48.784;9.192;2023-09-19T19:06:07;98455.31;;;19.14;55.84
41140;BME280;26881;48.784;9.192;2023-09-19T19:11:29;98459.09;;;19.12;55.52
41140;BME280;26881;48.784;9.192;2023-09-19T19:16:52;98466.25;;;19.02;56.11
41140;BME280;26881;48.784;9.192;2023-09-19T19:22:15;98475.78;;;18.94;57.42
41140;BME280;26881;48.784;9.192;2023-09-19T19:27:38;98482.09;;;18.84;58.21
41140;BME280;26881;48.784;9.192;2023-09-19T19:33:00;98486.72;;;18.62;58.67
41140;BME280;26881;48.784;9.192;2023-09-19T19:38:22;98478.78;;;18.62;58.51
41140;BME280;26881;48.784;9.192;2023-09-19T19:43:47;98495.41;;;18.45;59.81
41140;BME280;26881;48.784;9.192;2023-09-19T19:49:10;98502.13;;;18.49;58.94
41140;BME280;26881;48.784;9.192;2023-09-19T19:54:32;98502.00;;;18.31;59.07
41140;BME280;26881;48.784;9.192;2023-09-19T19:59:54;98507.59;;;18.28;58.59
41140;BME280;26881;48.784;9.192;2023-09-19T20:05:17;98510.91;;;18.20;59.05
41140;BME280;26881;48.784;9.192;2023-09-19T20:10:40;98507.31;;;18.11;60.02
41140;BME280;26881;48.784;9.192;2023-09-19T20:16:02;98517.34;;;18.08;60.93
41140;BME280;26881;48.784;9.192;2023-09-19T20:21:26;98520.97;;;17.97;59.91
41140;BME280;26881;48.784;9.192;2023-09-19T20:26:47;98510.09;;;17.90;60.22
41140;BME280;26881;48.784;9.192;2023-09-19T20:32:09;98507.03;;;17.95;59.84
41140;BME280;26881;48.784;9.192;2023-09-19T20:37:32;98506.34;;;17.93;59.86
41140;BME280;26881;48.784;9.192;2023-09-19T20:42:54;98508.69;;;17.86;59.61
41140;BME280;26881;48.784;9.192;2023-09-19T20:48:16;98516.72;;;17.75;61.13
41140;BME280;26881;48.784;9.192;2023-09-19T20:53:41;98520.72;;;17.60;62.41
41140;BME280;26881;48.784;9.192;2023-09-19T20:59:03;98518.94;;;17.51;62.89
41140;BME280;26881;48.784;9.192;2023-09-19T21:04:27;98514.44;;;17.41;64.71
41140;BME280;26881;48.784;9.192;2023-09-19T21:09:49;98515.81;;;17.36;66.20
41140;BME280;26881;48.784;9.192;2023-09-19T21:15:11;98503.28;;;17.28;65.74
41140;BME280;26881;48.784;9.192;2023-09-19T21:20:33;98511.59;;;17.14;67.41
41140;BME280;26881;48.784;9.192;2023-09-19T21:25:56;98504.88;;;17.10;67.72
41140;BME280;26881;48.784;9.192;2023-09-19T21:31:18;98511.56;;;17.04;68.15
41140;BME280;26881;48.784;9.192;2023-09-19T21:36:40;98513.72;;;16.99;68.22
41140;BME280;26881;48.784;9.192;2023-09-19T21:42:03;98508.28;;;16.91;68.66
41140;BME280;26881;48.784;9.192;2023-09-19T21:47:25;98511.00;;;16.79;70.05
41140;BME280;26881;48.784;9.192;2023-09-19T21:52:47;98503.56;;;16.73;70.14
41140;BME280;26881;48.784;9.192;2023-09-19T21:58:09;98511.31;;;16.65;69.54
41140;BME280;26881;48.784;9.192;2023-09-19T22:03:31;98513.91;;;16.55;70.96
41140;BME280;26881;48.784;9.192;2023-09-19T22:08:53;98510.56;;;16.53;71.05
41140;BME280;26881;48.784;9.192;2023-09-19T22:14:15;98506.63;;;16.48;70.79
41140;BME280;26881;48.784;9.192;2023-09-19T22:19:37;98513.97;;;16.44;68.27
41140;BME280;26881;48.784;9.192;2023-09-19T22:25:06;98513.91;;;16.55;67.10
41140;BME280;26881;48.784;9.192;2023-09-19T22:30:36;98519.03;;;16.57;65.52
41140;BME280;26881;48.784;9.192;2023-09-19T22:36:09;98521.81;;;16.76;63.32
41140;BME280;26881;48.784;9.192;2023-09-19T22:41:31;98516.38;;;16.78;63.07
41140;BME280;26881;48.784;9.192;2023-09-19T22:46:54;98518.81;;;16.81;63.44
41140;BME280;26881;48.784;9.192;2023-09-19T22:52:17;98517.31;;;16.88;62.98
41140;BME280;26881;48.784;9.192;2023-09-19T22:57:40;98517.44;;;16.87;63.84
41140;BME280;26881;48.784;9.192;2023-09-19T23:03:01;98522.53;;;16.78;64.72
41140;BME280;26881;48.784;9.192;2023-09-19T23:08:27;98523.59;;;16.55;65.88
41140;BME280;26881;48.784;9.192;2023-09-19T23:13:50;98522.84;;;16.43;66.61
41140;BME280;26881;48.784;9.192;2023-09-19T23:19:13;98519.75;;;16.38;66.96
41140;BME280;26881;48.784;9.192;2023-09-19T23:24:50;98516.66;;;16.33;67.28
41140;BME280;26881;48.784;9.192;2023-09-19T23:30:28;98513.59;;;16.28;67.77
41140;BME280;26881;48.784;9.192;2023-09-19T23:35:53;98522.97;;;16.20;69.32
41140;BME280;26881;48.784;9.192;2023-09-19T23:41:16;98522.44;;;16.06;70.05
41140;BME280;26881;48.784;9.192;2023-09-19T23:46:43;98516.63;;;15.91;70.98
41140;BME280;26881;48.784;9.192;2023-09-19T23:52:07;98526.00;;;15.84;72.63
41140;BME280;26881;48.784;9.192;2023-09-19T23:57:31;98510.44;;;15.69;73.58
